Time;durP1;ratioP1;P1;durP2;ratioP2;P2;SDS_P1;SDS_P2;PMS_P1;PMS_P2;Temp;Humidity;BMP_temperature;BMP_pressure;BME280_temperature;BME280_humidity;BME280_pressure;Samples;Min_cycle;Max_cycle;Signal;HPM_P1;HPM_P2
2022/10/10 00:02:12;;;;;;;;;;;;;;;;;;4949551;28;20405;-67
2022/10/10 00:04:40;;;;;;;9.57;2.75;;;;;;;;;;4968483;28;19920;-67
2022/10/10 00:07:07;;;;;;;11.55;2.83;;;;;;;;;;4970262;28;20049;-67
2022/10/10 00:09:35;;;;;;;9.18;2.67;;;;;;;;;;4966741;28;20074;-67
2022/10/10 00:12:02;;;;;;;12.52;2.70;;;;;;;;;;4967793;28;21051;-68
2022/10/10 00:14:29;;;;;;;12.07;3.00;;;;;;;;;;4964865;28;20043;-67
2022/10/10 00:16:57;;;;;;;10.07;2.67;;;;;;;;;;4969891;28;20034;-67
2022/10/10 00:19:24;;;;;;;12.63;2.90;;;;;;;;;;4965621;28;20062;-66
2022/10/10 00:21:51;;;;;;;12.27;3.17;;;;;;;;;;4969878;28;20536;-67
2022/10/10 00:24:19;;;;;;;12.25;3.80;;;;;;;;;;4949339;28;20066;-67
2022/10/10 00:26:46;;;;;;;12.88;3.60;;;;;;;;;;4962927;28;20062;-66
2022/10/10 00:29:14;;;;;;;12.13;3.00;;;;;;;;;;4968112;28;20122;-67
2022/10/10 00:31:41;;;;;;;12.85;3.17;;;;;;;;;;4966915;28;20204;-67
2022/10/10 00:34:08;;;;;;;10.55;3.10;;;;;;;;;;4972871;28;20556;-66
2022/10/10 00:36:35;;;;;;;11.68;2.97;;;;;;;;;;4969874;28;20465;-66
2022/10/10 00:39:03;;;;;;;10.82;2.42;;;;;;;;;;4973178;28;20481;-66
2022/10/10 00:41:31;;;;;;;11.50;2.90;;;;;;;;;;4969673;28;20623;-67
2022/10/10 00:44:02;;;;;;;11.77;2.83;;;;;;;;;;4972137;28;20030;-66
2022/10/10 00:46:28;;;;;;;14.15;3.20;;;;;;;;;;4968427;28;20084;-66
2022/10/10 00:48:55;;;;;;;11.10;2.83;;;;;;;;;;4969716;28;20584;-67
2022/10/10 00:51:21;;;;;;;11.63;3.05;;;;;;;;;;4971370;28;20032;-67
2022/10/10 00:53:47;;;;;;;;;;;;;;;;;;4968925;28;20615;-67
2022/10/10 00:56:14;;;;;;;9.07;2.40;;;;;;;;;;4971428;28;19953;-67
2022/10/10 00:58:43;;;;;;;16.00;3.28;;;;;;;;;;4968997;28;20492;-67
2022/10/10 01:01:09;;;;;;;8.38;2.78;;;;;;;;;;4970868;28;20030;-66
2022/10/10 01:03:35;;;;;;;;;;;;;;;;;;4968937;28;20496;-67
2022/10/10 01:06:01;;;;;;;11.43;2.72;;;;;;;;;;4969331;28;19918;-67
2022/10/10 01:08:27;;;;;;;10.48;2.75;;;;;;;;;;4979699;28;20788;-66
2022/10/10 01:11:12;;;;;;;11.95;3.17;;;;;;;;;;4973020;28;20037;-67
2022/10/10 01:13:43;;;;;;;10.23;2.50;;;;;;;;;;4969734;28;20049;-66
2022/10/10 01:16:10;;;;;;;8.65;2.30;;;;;;;;;;4972018;28;20116;-67
2022/10/10 01:18:43;;;;;;;10.23;2.67;;;;;;;;;;4951711;28;20038;-67
2022/10/10 01:21:09;;;;;;;11.20;2.65;;;;;;;;;;4965610;28;20026;-67
2022/10/10 01:23:50;;;;;;;10.70;2.60;;;;;;;;;;4968542;28;20428;-66
2022/10/10 01:26:16;;;;;;;10.02;2.45;;;;;;;;;;4980788;28;20348;-67
2022/10/10 01:28:50;;;;;;;13.18;2.70;;;;;;;;;;4978467;28;20382;-68
2022/10/10 01:31:21;;;;;;;12.27;2.97;;;;;;;;;;4969173;28;20076;-67
2022/10/10 01:33:53;;;;;;;9.40;2.60;;;;;;;;;;4981273;28;20030;-67
2022/10/10 01:36:19;;;;;;;13.30;2.67;;;;;;;;;;4970909;28;20918;-66
2022/10/10 01:38:51;;;;;;;11.32;2.80;;;;;;;;;;4969744;28;20030;-68
2022/10/10 01:41:37;;;;;;;9.57;2.90;;;;;;;;;;4971516;28;20709;-68
2022/10/10 01:44:04;;;;;;;9.00;2.50;;;;;;;;;;4984535;28;20556;-67
2022/10/10 01:46:32;;;;;;;9.40;2.72;;;;;;;;;;4968370;28;20511;-67
2022/10/10 01:49:00;;;;;;;10.25;2.67;;;;;;;;;;4965789;28;20022;-67
2022/10/10 01:51:45;;;;;;;14.60;2.95;;;;;;;;;;4968441;28;20141;-67
2022/10/10 01:54:32;;;;;;;13.20;3.08;;;;;;;;;;4972280;28;20030;-66
2022/10/10 01:56:59;;;;;;;;;;;;;;;;;;4967927;28;20241;-66
2022/10/10 01:59:32;;;;;;;12.68;2.35;;;;;;;;;;4965593;28;19922;-66
2022/10/10 02:02:18;;;;;;;8.65;2.25;;;;;;;;;;4970233;28;20481;-67
2022/10/10 02:04:50;;;;;;;10.55;2.47;;;;;;;;;;4966487;28;20514;-66
2022/10/10 02:07:39;;;;;;;9.63;2.20;;;;;;;;;;4968366;28;20026;-66
2022/10/10 02:10:07;;;;;;;9.57;2.40;;;;;;;;;;4968986;28;20046;-66
2022/10/10 02:12:35;;;;;;;13.07;2.78;;;;;;;;;;4966257;28;20040;-66
2022/10/10 02:15:13;;;;;;;13.05;2.90;;;;;;;;;;4969953;28;20440;-67
2022/10/10 02:17:42;;;;;;;11.60;2.70;;;;;;;;;;4966734;28;20029;-66
2022/10/10 02:20:12;;;;;;;14.70;2.80;;;;;;;;;;4971831;28;20782;-66
2022/10/10 02:22:40;;;;;;;10.45;2.80;;;;;;;;;;4977303;28;20104;-66
2022/10/10 02:25:08;;;;;;;14.60;2.55;;;;;;;;;;4987852;28;20437;-66
2022/10/10 02:27:49;;;;;;;11.57;2.97;;;;;;;;;;4982760;28;20129;-66
2022/10/10 02:30:18;;;;;;;12.05;2.67;;;;;;;;;;4988699;28;20041;-67
2022/10/10 02:32:47;;;;;;;8.73;2.42;;;;;;;;;;4986499;28;20488;-66
2022/10/10 02:35:17;;;;;;;10.40;2.78;;;;;;;;;;4988618;28;20567;-66
2022/10/10 02:37:44;;;;;;;11.15;2.75;;;;;;;;;;4968140;28;20456;-68
2022/10/10 02:40:12;;;;;;;12.05;2.92;;;;;;;;;;4970861;28;20037;-67
2022/10/10 02:42:39;;;;;;;11.10;2.67;;;;;;;;;;4986560;28;20481;-66
2022/10/10 02:45:07;;;;;;;13.90;3.03;;;;;;;;;;4984201;28;20049;-66
2022/10/10 02:47:33;;;;;;;10.88;3.10;;;;;;;;;;4985593;28;20022;-66
2022/10/10 02:49:59;;;;;;;10.43;2.63;;;;;;;;;;4988220;28;20133;-66
2022/10/10 02:52:25;;;;;;;;;;;;;;;;;;4986568;28;20548;-67
2022/10/10 02:54:51;;;;;;;10.95;2.53;;;;;;;;;;4987216;28;19936;-66
2022/10/10 02:57:17;;;;;;;14.75;3.03;;;;;;;;;;4988070;28;20819;-66
2022/10/10 02:59:44;;;;;;;12.30;2.63;;;;;;;;;;4984246;28;20203;-66
2022/10/10 03:02:09;;;;;;;;;;;;;;;;;;4988544;28;20082;-66
2022/10/10 03:04:36;;;;;;;10.63;2.83;;;;;;;;;;4983530;28;19933;-66
2022/10/10 03:07:02;;;;;;;;;;;;;;;;;;4989826;28;20034;-66
2022/10/10 03:09:28;;;;;;;10.07;2.38;;;;;;;;;;4999463;28;19913;-66
2022/10/10 03:11:54;;;;;;;10.85;2.90;;;;;;;;;;4988079;28;20034;-66
2022/10/10 03:14:20;;;;;;;11.23;2.38;;;;;;;;;;4988842;28;20030;-66
2022/10/10 03:16:46;;;;;;;13.02;2.80;;;;;;;;;;4985083;28;20381;-66
2022/10/10 03:19:12;;;;;;;11.95;2.78;;;;;;;;;;4988428;28;20022;-66
2022/10/10 03:21:38;;;;;;;10.18;2.45;;;;;;;;;;4982339;28;20029;-67
2022/10/10 03:24:04;;;;;;;;;;;;;;;;;;4989750;28;20103;-66
2022/10/10 03:26:31;;;;;;;11.18;2.60;;;;;;;;;;4983873;28;19913;-66
2022/10/10 03:28:57;;;;;;;12.65;2.80;;;;;;;;;;4987858;28;20049;-66
2022/10/10 03:31:23;;;;;;;10.82;2.40;;;;;;;;;;4989433;28;20037;-67
2022/10/10 03:33:49;;;;;;;10.45;2.45;;;;;;;;;;4989937;28;20041;-67
2022/10/10 03:36:16;;;;;;;10.55;2.50;;;;;;;;;;4987625;28;20355;-67
2022/10/10 03:38:42;;;;;;;11.13;2.75;;;;;;;;;;4985915;28;23250;-67
2022/10/10 03:41:08;;;;;;;;;;;;;;;;;;4984922;28;20038;-67
2022/10/10 03:43:34;;;;;;;11.27;2.50;;;;;;;;;;4986744;28;19976;-66
2022/10/10 03:46:00;;;;;;;10.60;2.38;;;;;;;;;;4987216;28;20030;-66
2022/10/10 03:48:28;;;;;;;9.93;2.28;;;;;;;;;;4986532;28;20253;-66
2022/10/10 03:50:55;;;;;;;9.43;2.42;;;;;;;;;;4988689;28;20148;-66
2022/10/10 03:53:22;;;;;;;12.63;2.72;;;;;;;;;;4985954;28;20060;-66
2022/10/10 03:55:50;;;;;;;12.13;2.55;;;;;;;;;;4985803;28;20126;-66
2022/10/10 03:58:17;;;;;;;12.68;2.70;;;;;;;;;;4987120;28;20620;-66
2022/10/10 04:00:44;;;;;;;10.27;2.58;;;;;;;;;;4986504;28;20112;-67
2022/10/10 04:03:12;;;;;;;11.07;2.80;;;;;;;;;;4989564;28;20068;-68
2022/10/10 04:05:39;;;;;;;12.50;3.03;;;;;;;;;;4985293;28;20044;-68
2022/10/10 04:08:07;;;;;;;10.75;2.60;;;;;;;;;;4991738;28;20081;-66
2022/10/10 04:10:35;;;;;;;12.98;2.95;;;;;;;;;;4988516;28;20029;-66
2022/10/10 04:13:02;;;;;;;11.52;2.60;;;;;;;;;;4992985;28;20457;-67
2022/10/10 04:15:31;;;;;;;11.23;2.83;;;;;;;;;;5002261;28;20519;-67
2022/10/10 04:17:59;;;;;;;12.07;2.95;;;;;;;;;;4974230;28;20144;-66
2022/10/10 04:20:26;;;;;;;12.65;2.72;;;;;;;;;;5003280;28;20358;-66
2022/10/10 04:22:54;;;;;;;10.88;2.45;;;;;;;;;;4990974;28;20053;-66
2022/10/10 04:25:21;;;;;;;10.40;2.25;;;;;;;;;;4990890;28;20026;-66
2022/10/10 04:27:47;;;;;;;13.52;2.78;;;;;;;;;;4990138;28;20047;-66
2022/10/10 04:30:15;;;;;;;12.10;2.20;;;;;;;;;;4991744;28;20387;-67
2022/10/10 04:32:42;;;;;;;11.07;2.50;;;;;;;;;;5001359;28;20038;-66
2022/10/10 04:35:09;;;;;;;11.52;2.50;;;;;;;;;;4989937;28;20045;-66
2022/10/10 04:37:38;;;;;;;11.43;2.63;;;;;;;;;;4986563;28;20706;-67
2022/10/10 04:40:05;;;;;;;9.27;2.55;;;;;;;;;;5006329;28;20133;-67
2022/10/10 04:42:32;;;;;;;15.60;2.67;;;;;;;;;;4988418;28;20163;-66
2022/10/10 04:45:00;;;;;;;10.85;2.50;;;;;;;;;;4991709;28;20434;-67
2022/10/10 04:47:26;;;;;;;11.27;2.75;;;;;;;;;;4984723;28;20034;-66
2022/10/10 04:49:52;;;;;;;13.13;3.13;;;;;;;;;;4991458;28;20033;-66
2022/10/10 04:52:18;;;;;;;9.68;2.47;;;;;;;;;;4990075;28;20034;-66
2022/10/10 04:54:44;;;;;;;11.52;2.67;;;;;;;;;;4987740;28;20037;-66
2022/10/10 04:57:10;;;;;;;;;;;;;;;;;;4990354;28;20045;-66
2022/10/10 04:59:37;;;;;;;13.45;3.08;;;;;;;;;;4988112;28;20418;-67
2022/10/10 05:02:03;;;;;;;;;;;;;;;;;;4991270;28;20061;-66
2022/10/10 05:04:29;;;;;;;9.90;2.67;;;;;;;;;;4988467;28;19913;-67
2022/10/10 05:06:55;;;;;;;11.63;2.75;;;;;;;;;;4990469;28;20503;-67
2022/10/10 05:09:21;;;;;;;11.95;2.63;;;;;;;;;;5004487;28;20033;-66
2022/10/10 05:11:47;;;;;;;;;;;;;;;;;;4989868;28;20037;-67
2022/10/10 05:14:13;;;;;;;10.10;2.58;;;;;;;;;;4992677;28;19920;-66
2022/10/10 05:16:39;;;;;;;14.13;3.00;;;;;;;;;;4987123;28;20207;-67
2022/10/10 05:19:05;;;;;;;;;;;;;;;;;;4992620;28;20044;-66
2022/10/10 05:21:32;;;;;;;13.52;3.00;;;;;;;;;;4987196;28;19913;-67
2022/10/10 05:23:58;;;;;;;9.85;3.63;;;;;;;;;;4989783;28;20132;-67
2022/10/10 05:26:24;;;;;;;10.27;3.03;;;;;;;;;;4984457;28;20110;-67
2022/10/10 05:28:50;;;;;;;11.32;3.13;;;;;;;;;;4992004;28;20061;-67
2022/10/10 05:31:16;;;;;;;12.70;2.83;;;;;;;;;;4989368;28;20480;-67
2022/10/10 05:33:42;;;;;;;13.52;3.00;;;;;;;;;;4986815;28;21105;-67
2022/10/10 05:36:10;;;;;;;11.43;2.83;;;;;;;;;;4989604;28;20411;-67
2022/10/10 05:38:36;;;;;;;13.70;3.05;;;;;;;;;;4970044;28;20046;-67
2022/10/10 05:41:02;;;;;;;;;;;;;;;;;;4995072;28;20566;-67
2022/10/10 05:43:28;;;;;;;12.13;3.40;;;;;;;;;;4984239;28;19913;-68
2022/10/10 05:45:55;;;;;;;10.75;3.15;;;;;;;;;;4990151;28;20440;-68
2022/10/10 05:48:23;;;;;;;11.07;3.38;;;;;;;;;;4969742;28;20092;-67
2022/10/10 05:50:55;;;;;;;12.13;3.38;;;;;;;;;;4991822;28;20071;-67
2022/10/10 05:53:23;;;;;;;13.32;3.47;;;;;;;;;;4990592;28;20621;-67
2022/10/10 05:55:51;;;;;;;10.68;3.45;;;;;;;;;;4988356;28;20037;-67
2022/10/10 05:58:18;;;;;;;11.52;4.13;;;;;;;;;;4989236;28;20397;-67
2022/10/10 06:00:46;;;;;;;9.32;3.53;;;;;;;;;;4983437;28;20420;-68
2022/10/10 06:03:15;;;;;;;9.95;3.45;;;;;;;;;;4987894;28;20033;-68
2022/10/10 06:05:43;;;;;;;12.35;3.40;;;;;;;;;;4988161;28;20068;-67
2022/10/10 06:08:11;;;;;;;12.32;3.28;;;;;;;;;;4990908;28;20532;-67
2022/10/10 06:10:41;;;;;;;13.20;3.10;;;;;;;;;;4988165;28;20041;-67
2022/10/10 06:13:08;;;;;;;10.80;3.35;;;;;;;;;;4990206;28;20038;-67
2022/10/10 06:15:36;;;;;;;12.90;3.40;;;;;;;;;;4966620;28;20469;-68
2022/10/10 06:18:04;;;;;;;13.68;3.85;;;;;;;;;;4988193;28;20060;-67
2022/10/10 06:20:33;;;;;;;14.95;4.15;;;;;;;;;;4986195;28;20026;-65
2022/10/10 06:23:01;;;;;;;12.98;3.83;;;;;;;;;;4980477;28;20045;-65
2022/10/10 06:25:28;;;;;;;13.98;4.22;;;;;;;;;;4966309;28;20129;-66
2022/10/10 06:27:54;;;;;;;17.83;4.13;;;;;;;;;;4983532;28;20033;-67
2022/10/10 06:30:21;;;;;;;13.27;3.15;;;;;;;;;;4970175;28;20472;-66
2022/10/10 06:32:48;;;;;;;9.43;2.75;;;;;;;;;;4974436;28;20052;-66
2022/10/10 06:35:15;;;;;;;11.95;3.13;;;;;;;;;;4972745;28;20125;-66
2022/10/10 06:37:42;;;;;;;15.82;3.45;;;;;;;;;;4983979;28;20564;-66
2022/10/10 06:40:11;;;;;;;13.82;3.42;;;;;;;;;;5009083;28;20558;-67
2022/10/10 06:42:38;;;;;;;15.70;3.22;;;;;;;;;;5005802;28;20026;-67
2022/10/10 06:45:07;;;;;;;13.80;3.75;;;;;;;;;;5005513;28;20129;-67
2022/10/10 06:47:33;;;;;;;12.10;3.30;;;;;;;;;;5001524;28;20423;-66
2022/10/10 06:49:59;;;;;;;11.15;3.20;;;;;;;;;;5008378;28;20025;-67
2022/10/10 06:52:25;;;;;;;11.27;2.95;;;;;;;;;;5006055;28;20454;-67
2022/10/10 06:54:51;;;;;;;14.73;3.30;;;;;;;;;;4991342;28;20187;-67
2022/10/10 06:57:17;;;;;;;;;;;;;;;;;;4989784;28;20041;-66
2022/10/10 06:59:44;;;;;;;11.95;3.33;;;;;;;;;;5004405;28;19913;-67
2022/10/10 07:02:12;;;;;;;12.55;3.50;;;;;;;;;;5010431;28;20025;-67
2022/10/10 07:04:38;;;;;;;10.23;2.60;;;;;;;;;;5007692;28;20031;-67
2022/10/10 07:07:04;;;;;;;9.77;2.60;;;;;;;;;;5011185;28;20446;-67
2022/10/10 07:09:30;;;;;;;;;;;;;;;;;;4988306;28;20041;-67
2022/10/10 07:11:56;;;;;;;12.15;2.80;;;;;;;;;;4992395;28;19913;-67
2022/10/10 07:14:23;;;;;;;;;;;;;;;;;;5005473;28;20313;-66
2022/10/10 07:16:49;;;;;;;12.33;3.03;;;;;;;;;;5008629;28;20422;-66
2022/10/10 07:19:15;;;;;;;;;;;;;;;;;;5015145;28;20804;-65
2022/10/10 07:21:41;;;;;;;13.15;3.22;;;;;;;;;;5008667;28;19916;-67
2022/10/10 07:24:07;;;;;;;;;;;;;;;;;;5008560;28;20522;-66
2022/10/10 07:26:37;;;;;;;13.00;3.55;;;;;;;;;;5003860;28;20437;-67
2022/10/10 07:29:03;;;;;;;11.88;3.13;;;;;;;;;;5006557;28;20150;-67
2022/10/10 07:31:29;;;;;;;;;;;;;;;;;;5008821;28;20021;-67
2022/10/10 07:33:55;;;;;;;9.85;2.53;;;;;;;;;;5009183;28;19967;-67
2022/10/10 07:36:21;;;;;;;;;;;;;;;;;;5003461;28;21260;-67
2022/10/10 07:38:51;;;;;;;7.32;2.35;;;;;;;;;;5003647;28;20386;-67
2022/10/10 07:41:18;;;;;;;15.15;3.05;;;;;;;;;;5012630;28;20609;-66
2022/10/10 07:43:45;;;;;;;12.25;3.50;;;;;;;;;;5012152;28;20051;-67
2022/10/10 07:46:16;;;;;;;15.98;4.18;;;;;;;;;;5016483;28;20040;-67
2022/10/10 07:48:43;;;;;;;14.80;4.00;;;;;;;;;;5009747;28;23092;-66
2022/10/10 07:51:11;;;;;;;10.57;3.78;;;;;;;;;;4998594;28;20072;-67
2022/10/10 07:53:40;;;;;;;12.85;3.25;;;;;;;;;;5008367;28;20617;-67
2022/10/10 07:56:08;;;;;;;11.48;3.78;;;;;;;;;;5012398;28;20443;-67
2022/10/10 07:58:36;;;;;;;10.57;3.70;;;;;;;;;;5010695;28;20029;-67
2022/10/10 08:01:11;;;;;;;13.88;3.83;;;;;;;;;;5016382;28;20083;-67
2022/10/10 08:03:38;;;;;;;11.15;3.38;;;;;;;;;;5014827;28;20021;-67
2022/10/10 08:06:06;;;;;;;9.65;2.97;;;;;;;;;;5014457;28;20439;-68
2022/10/10 08:08:34;;;;;;;12.10;3.40;;;;;;;;;;5013351;28;20029;-67
2022/10/10 08:11:04;;;;;;;10.95;3.20;;;;;;;;;;5012520;28;20970;-67
2022/10/10 08:13:31;;;;;;;10.45;2.80;;;;;;;;;;5013982;28;20041;-68
2022/10/10 08:15:58;;;;;;;11.45;2.80;;;;;;;;;;5013790;28;20064;-67
2022/10/10 08:18:26;;;;;;;14.15;3.22;;;;;;;;;;4992231;28;20057;-66
2022/10/10 08:20:59;;;;;;;10.65;3.30;;;;;;;;;;4996072;28;20100;-67
2022/10/10 08:23:27;;;;;;;9.25;2.90;;;;;;;;;;5008302;28;20127;-67
2022/10/10 08:25:53;;;;;;;11.35;3.20;;;;;;;;;;5011910;28;20029;-67
2022/10/10 08:28:20;;;;;;;12.27;2.65;;;;;;;;;;5014684;28;20037;-69
2022/10/10 08:30:48;;;;;;;10.48;2.83;;;;;;;;;;5012527;28;20140;-66
2022/10/10 08:33:15;;;;;;;10.70;2.75;;;;;;;;;;5014228;28;20555;-68
2022/10/10 08:35:44;;;;;;;11.38;2.90;;;;;;;;;;5010931;28;20389;-67
2022/10/10 08:38:13;;;;;;;8.40;2.53;;;;;;;;;;4996958;28;20046;-67
2022/10/10 08:40:41;;;;;;;9.55;2.95;;;;;;;;;;5011864;28;20056;-67
2022/10/10 08:43:11;;;;;;;10.68;2.88;;;;;;;;;;5012961;28;20036;-67
2022/10/10 08:45:38;;;;;;;10.38;2.88;;;;;;;;;;4993107;28;20622;-66
2022/10/10 08:48:06;;;;;;;9.50;2.72;;;;;;;;;;5010993;28;21014;-67
2022/10/10 08:50:40;;;;;;;10.85;2.65;;;;;;;;;;4992128;28;20455;-68
2022/10/10 08:53:10;;;;;;;12.68;3.08;;;;;;;;;;5007512;28;20091;-68
2022/10/10 08:55:38;;;;;;;9.43;2.42;;;;;;;;;;5005605;28;20029;-68
2022/10/10 08:58:13;;;;;;;10.75;3.08;;;;;;;;;;5007608;28;20038;-68
2022/10/10 09:00:46;;;;;;;10.57;2.73;;;;;;;;;;4989429;28;20747;-68
2022/10/10 09:03:38;;;;;;;14.07;2.80;;;;;;;;;;5009686;28;20479;-68
2022/10/10 09:06:23;;;;;;;9.10;2.65;;;;;;;;;;5006979;28;21207;-68
2022/10/10 09:09:18;;;;;;;9.50;2.15;;;;;;;;;;5008331;28;20144;-67
2022/10/10 09:11:48;;;;;;;10.50;2.72;;;;;;;;;;4989191;28;20084;-68
2022/10/10 09:14:32;;;;;;;11.35;2.60;;;;;;;;;;5006878;28;20122;-68
2022/10/10 09:17:04;;;;;;;13.45;2.60;;;;;;;;;;5015651;28;20569;-67
2022/10/10 09:19:40;;;;;;;13.98;2.70;;;;;;;;;;5006398;28;20033;-67
2022/10/10 09:22:10;;;;;;;8.65;2.70;;;;;;;;;;5009447;28;20116;-67
2022/10/10 09:24:40;;;;;;;10.90;2.92;;;;;;;;;;5006931;28;20065;-67
2022/10/10 09:27:09;;;;;;;10.68;2.75;;;;;;;;;;4990815;28;20117;-68
2022/10/10 09:29:39;;;;;;;10.50;2.30;;;;;;;;;;5008113;28;20029;-68
2022/10/10 09:32:08;;;;;;;9.68;2.33;;;;;;;;;;5008901;28;20120;-68
2022/10/10 09:34:53;;;;;;;10.90;2.63;;;;;;;;;;5003778;28;20567;-68
2022/10/10 09:37:20;;;;;;;9.05;2.50;;;;;;;;;;5008653;28;20037;-68
2022/10/10 09:39:52;;;;;;;10.07;2.58;;;;;;;;;;5007805;28;20029;-69
2022/10/10 09:42:22;;;;;;;8.70;2.47;;;;;;;;;;5010042;28;20037;-68
2022/10/10 09:44:48;;;;;;;12.57;3.08;;;;;;;;;;4991622;28;20124;-68
2022/10/10 09:47:16;;;;;;;11.15;2.67;;;;;;;;;;5008074;28;20341;-68
2022/10/10 09:49:44;;;;;;;12.00;2.95;;;;;;;;;;5008007;28;21956;-68
2022/10/10 09:52:30;;;;;;;9.25;2.30;;;;;;;;;;5012019;28;20025;-68
2022/10/10 09:55:02;;;;;;;10.52;2.63;;;;;;;;;;5010554;28;20040;-68
2022/10/10 09:57:33;;;;;;;9.00;2.47;;;;;;;;;;5006863;28;20156;-68
2022/10/10 10:00:22;;;;;;;11.55;2.70;;;;;;;;;;5010321;28;20036;-68
2022/10/10 10:03:02;;;;;;;11.45;2.60;;;;;;;;;;5009225;28;20013;-68
2022/10/10 10:05:30;;;;;;;11.45;2.67;;;;;;;;;;4987172;28;20467;-68
2022/10/10 10:07:57;;;;;;;11.15;2.38;;;;;;;;;;5009632;28;20339;-68
2022/10/10 10:10:29;;;;;;;10.77;2.30;;;;;;;;;;5008005;28;20037;-68
2022/10/10 10:12:56;;;;;;;9.13;2.40;;;;;;;;;;5011162;28;20017;-68
2022/10/10 10:15:30;;;;;;;11.18;2.40;;;;;;;;;;5006399;28;20255;-68
2022/10/10 10:18:30;;;;;;;9.30;2.33;;;;;;;;;;5008463;28;20660;-68
2022/10/10 10:21:14;;;;;;;10.98;2.38;;;;;;;;;;4959720;28;20038;-68
2022/10/10 10:23:43;;;;;;;10.98;2.70;;;;;;;;;;4964408;28;20462;-68
2022/10/10 10:26:31;;;;;;;9.32;2.45;;;;;;;;;;4965300;28;20034;-68
2022/10/10 10:28:58;;;;;;;9.38;2.42;;;;;;;;;;4963390;28;20045;-68
2022/10/10 10:31:43;;;;;;;10.07;2.50;;;;;;;;;;4963717;28;20144;-68
2022/10/10 10:34:25;;;;;;;11.40;2.40;;;;;;;;;;4967458;28;20042;-68
2022/10/10 10:36:59;;;;;;;9.82;2.10;;;;;;;;;;4969386;28;20141;-68
2022/10/10 10:39:44;;;;;;;9.80;2.53;;;;;;;;;;4943521;28;20039;-68
2022/10/10 10:42:16;;;;;;;12.75;2.42;;;;;;;;;;4948739;28;20276;-68
2022/10/10 10:44:59;;;;;;;10.52;2.53;;;;;;;;;;4945765;28;24369;-68
2022/10/10 10:47:26;;;;;;;11.70;2.60;;;;;;;;;;4915715;28;20037;-69
2022/10/10 10:49:52;;;;;;;11.60;3.05;;;;;;;;;;4945288;28;20039;-68
2022/10/10 10:52:20;;;;;;;8.95;2.33;;;;;;;;;;4947649;28;20038;-67
2022/10/10 10:54:50;;;;;;;10.57;2.22;;;;;;;;;;4944206;28;20069;-69
2022/10/10 10:57:35;;;;;;;11.13;2.30;;;;;;;;;;4979519;28;20046;-68
2022/10/10 11:00:16;;;;;;;11.20;2.30;;;;;;;;;;4988826;28;20041;-67
2022/10/10 11:02:50;;;;;;;10.90;2.50;;;;;;;;;;4985634;28;20670;-66
2022/10/10 11:05:42;;;;;;;9.25;2.30;;;;;;;;;;4976099;28;20025;-66
2022/10/10 11:08:08;;;;;;;9.57;2.20;;;;;;;;;;4986646;28;20081;-67
2022/10/10 11:10:37;;;;;;;8.88;2.50;;;;;;;;;;4980808;28;20045;-67
2022/10/10 11:13:06;;;;;;;10.60;2.20;;;;;;;;;;4979162;28;20045;-67
2022/10/10 11:15:34;;;;;;;8.48;1.92;;;;;;;;;;4980659;28;20116;-67
2022/10/10 11:18:11;;;;;;;9.88;2.20;;;;;;;;;;4985145;28;20562;-67
2022/10/10 11:20:50;;;;;;;9.27;1.88;;;;;;;;;;4981086;28;20042;-67
2022/10/10 11:23:23;;;;;;;9.27;1.98;;;;;;;;;;4983937;28;20040;-67
2022/10/10 11:25:52;;;;;;;12.20;2.28;;;;;;;;;;4982783;28;20567;-67
2022/10/10 11:28:54;;;;;;;11.05;2.45;;;;;;;;;;4983686;28;20088;-67
2022/10/10 11:31:23;;;;;;;11.35;2.42;;;;;;;;;;4916593;28;20039;-67
2022/10/10 11:33:52;;;;;;;11.73;2.60;;;;;;;;;;4922762;28;20051;-67
2022/10/10 11:36:20;;;;;;;10.32;2.22;;;;;;;;;;4902376;28;20170;-67
2022/10/10 11:39:01;;;;;;;9.35;2.33;;;;;;;;;;4933130;28;20051;-67
2022/10/10 11:41:39;;;;;;;10.70;2.50;;;;;;;;;;4942131;28;20035;-67
2022/10/10 11:44:11;;;;;;;11.98;2.35;;;;;;;;;;4944433;28;20376;-67
2022/10/10 11:46:50;;;;;;;12.05;2.25;;;;;;;;;;4940115;28;20046;-67
2022/10/10 11:49:35;;;;;;;10.07;2.03;;;;;;;;;;4925372;28;20810;-66
2022/10/10 11:52:13;;;;;;;8.97;1.97;;;;;;;;;;4942432;28;20082;-67
2022/10/10 11:54:59;;;;;;;9.13;2.10;;;;;;;;;;4941477;28;20280;-66
2022/10/10 11:57:38;;;;;;;11.07;2.05;;;;;;;;;;4942070;28;20073;-67
2022/10/10 12:00:16;;;;;;;11.07;2.35;;;;;;;;;;4924547;28;20063;-68
2022/10/10 12:02:45;;;;;;;7.07;1.65;;;;;;;;;;4941966;28;22563;-67
2022/10/10 12:05:28;;;;;;;8.75;1.73;;;;;;;;;;4960647;28;20515;-67
2022/10/10 12:08:06;;;;;;;10.05;1.90;;;;;;;;;;4982410;28;20764;-67
2022/10/10 12:10:42;;;;;;;11.18;2.58;;;;;;;;;;4978536;28;20025;-67
2022/10/10 12:13:24;;;;;;;8.93;2.20;;;;;;;;;;4985269;28;20726;-67
2022/10/10 12:15:53;;;;;;;9.50;2.13;;;;;;;;;;4986894;28;20337;-67
2022/10/10 12:18:31;;;;;;;9.73;2.03;;;;;;;;;;4982698;28;20050;-67
2022/10/10 12:21:06;;;;;;;9.82;2.08;;;;;;;;;;4984943;28;20585;-69
2022/10/10 12:23:33;;;;;;;9.32;2.08;;;;;;;;;;4982342;28;20026;-67
2022/10/10 12:26:00;;;;;;;11.25;2.15;;;;;;;;;;4984271;28;20460;-66
2022/10/10 12:28:37;;;;;;;14.85;7.50;;;;;;;;;;4985017;28;20353;-66
2022/10/10 12:31:09;;;;;;;16.92;10.35;;;;;;;;;;4986970;28;20510;-67
2022/10/10 12:33:40;;;;;;;16.33;5.78;;;;;;;;;;4982604;28;20044;-67
2022/10/10 12:36:22;;;;;;;16.60;6.72;;;;;;;;;;4984920;28;20046;-67
2022/10/10 12:39:08;;;;;;;10.70;3.88;;;;;;;;;;5005325;28;20049;-67
2022/10/10 12:41:49;;;;;;;18.27;10.35;;;;;;;;;;5006695;28;20112;-68
2022/10/10 12:44:33;;;;;;;15.18;5.32;;;;;;;;;;5006680;28;20179;-68
2022/10/10 12:47:15;;;;;;;14.45;6.82;;;;;;;;;;5007359;28;20045;-68
2022/10/10 12:49:53;;;;;;;10.48;4.00;;;;;;;;;;5003219;28;20087;-68
2022/10/10 12:52:39;;;;;;;17.20;7.82;;;;;;;;;;4988074;28;20118;-69
2022/10/10 12:55:16;;;;;;;13.68;4.72;;;;;;;;;;4989992;28;20119;-68
2022/10/10 12:57:43;;;;;;;24.05;13.90;;;;;;;;;;5004756;28;20044;-67
2022/10/10 13:00:17;;;;;;;26.63;16.75;;;;;;;;;;5010426;28;20057;-69
2022/10/10 13:02:49;;;;;;;16.42;7.97;;;;;;;;;;5003253;28;20041;-68
2022/10/10 13:05:18;;;;;;;16.73;8.93;;;;;;;;;;5005966;28;20033;-67
2022/10/10 13:07:45;;;;;;;17.98;9.20;;;;;;;;;;5004412;28;20574;-68
2022/10/10 13:10:22;;;;;;;18.13;8.63;;;;;;;;;;4989014;28;20047;-68
2022/10/10 13:13:03;;;;;;;11.68;4.80;;;;;;;;;;4988210;28;20454;-68
2022/10/10 13:15:30;;;;;;;13.32;5.32;;;;;;;;;;5000957;28;20127;-68
2022/10/10 13:17:56;;;;;;;18.95;12.63;;;;;;;;;;5006120;28;20040;-67
2022/10/10 13:20:28;;;;;;;26.23;17.83;;;;;;;;;;5006898;28;20053;-68
2022/10/10 13:22:57;;;;;;;17.02;8.98;;;;;;;;;;5004720;28;20033;-67
2022/10/10 13:25:23;;;;;;;13.48;5.95;;;;;;;;;;5003341;28;20124;-67
2022/10/10 13:27:49;;;;;;;15.40;6.80;;;;;;;;;;5007910;28;20048;-68
2022/10/10 13:30:20;;;;;;;12.10;3.42;;;;;;;;;;5008109;28;20282;-68
2022/10/10 13:32:47;;;;;;;10.20;4.00;;;;;;;;;;4985386;28;20511;-67
2022/10/10 13:35:16;;;;;;;11.23;2.80;;;;;;;;;;5007102;28;20035;-68
2022/10/10 13:37:44;;;;;;;9.50;2.80;;;;;;;;;;4997855;28;20378;-67
2022/10/10 13:40:22;;;;;;;13.38;2.50;;;;;;;;;;4993498;28;20029;-67
2022/10/10 13:42:48;;;;;;;10.10;2.45;;;;;;;;;;4988690;28;20551;-68
2022/10/10 13:45:24;;;;;;;11.02;2.53;;;;;;;;;;4990870;28;20030;-67
2022/10/10 13:47:51;;;;;;;;;;;;;;;;;;4988912;28;20467;-68
2022/10/10 13:50:33;;;;;;;10.73;2.35;;;;;;;;;;4985055;28;19972;-68
2022/10/10 13:53:19;;;;;;;9.57;2.33;;;;;;;;;;4989239;28;20037;-67
2022/10/10 13:55:46;;;;;;;8.55;1.83;;;;;;;;;;4969676;28;20368;-68
2022/10/10 13:58:14;;;;;;;12.00;2.45;;;;;;;;;;4973958;28;20092;-68
2022/10/10 14:00:41;;;;;;;10.38;2.42;;;;;;;;;;4982610;28;20038;-68
2022/10/10 14:03:14;;;;;;;11.52;2.28;;;;;;;;;;4988835;28;20212;-68
2022/10/10 14:05:42;;;;;;;14.30;2.83;;;;;;;;;;4989642;28;20030;-68
2022/10/10 14:08:15;;;;;;;9.55;2.30;;;;;;;;;;4990317;28;20038;-68
2022/10/10 14:10:42;;;;;;;10.07;2.90;;;;;;;;;;4985969;28;20576;-68
2022/10/10 14:13:17;;;;;;;9.40;2.20;;;;;;;;;;4987170;28;20411;-68
2022/10/10 14:15:46;;;;;;;10.40;2.50;;;;;;;;;;4983982;28;20037;-68
2022/10/10 14:18:24;;;;;;;9.50;2.08;;;;;;;;;;4984589;28;20662;-67
2022/10/10 14:20:52;;;;;;;10.05;1.90;;;;;;;;;;4986707;28;20034;-68
2022/10/10 14:23:19;;;;;;;10.88;2.38;;;;;;;;;;4984679;28;20038;-68
2022/10/10 14:25:48;;;;;;;10.52;2.30;;;;;;;;;;4983758;28;20030;-68
2022/10/10 14:28:17;;;;;;;10.15;2.00;;;;;;;;;;4973745;28;20706;-68
2022/10/10 14:30:44;;;;;;;9.60;2.47;;;;;;;;;;4986639;28;20143;-67
2022/10/10 14:33:13;;;;;;;12.57;2.60;;;;;;;;;;4989462;28;20030;-67
2022/10/10 14:35:41;;;;;;;9.45;2.22;;;;;;;;;;4972703;28;20037;-68
2022/10/10 14:38:09;;;;;;;9.23;2.00;;;;;;;;;;4989559;28;20103;-68
2022/10/10 14:40:37;;;;;;;12.82;2.38;;;;;;;;;;4993508;28;20025;-69
2022/10/10 14:43:04;;;;;;;8.82;2.28;;;;;;;;;;4986749;28;20046;-69
2022/10/10 14:45:32;;;;;;;10.00;2.25;;;;;;;;;;4986042;28;20040;-67
2022/10/10 14:47:58;;;;;;;9.23;2.35;;;;;;;;;;4985441;28;20061;-67
2022/10/10 14:50:28;;;;;;;11.63;2.42;;;;;;;;;;4985323;28;20297;-67
2022/10/10 14:52:54;;;;;;;9.60;2.55;;;;;;;;;;4985431;28;20050;-68
2022/10/10 14:55:20;;;;;;;10.40;2.22;;;;;;;;;;4967377;28;20065;-68
2022/10/10 14:57:46;;;;;;;10.57;2.55;;;;;;;;;;4983052;28;20638;-68
2022/10/10 15:00:16;;;;;;;10.73;2.58;;;;;;;;;;4971484;28;20136;-67